Time;durP1;ratioP1;P1;durP2;ratioP2;P2;SDS_P1;SDS_P2;PMS_P1;PMS_P2;Temp;Humidity;BMP_temperature;BMP_pressure;BME280_temperature;BME280_humidity;BME280_pressure;Samples;Min_cycle;Max_cycle;Signal;HPM_P1;HPM_P2
2022/04/04 00:00:24;;;;;;;10.27;6.37;;;1.50;99.90;;;;;;5031342;28;20603;-62
2022/04/04 00:02:53;;;;;;;12.00;6.70;;;1.50;99.90;;;;;;5024617;28;20239;-61
2022/04/04 00:05:23;;;;;;;16.30;8.07;;;1.50;99.90;;;;;;5037493;28;20272;-62
2022/04/04 00:07:51;;;;;;;10.07;5.93;;;1.40;99.90;;;;;;5019959;28;20197;-61
2022/04/04 00:10:19;;;;;;;7.37;5.97;;;1.50;99.90;;;;;;5040881;28;20192;-62
2022/04/04 00:12:48;;;;;;;6.70;5.90;;;1.50;99.90;;;;;;5032625;28;20204;-62
2022/04/04 00:15:18;;;;;;;8.03;6.00;;;1.40;99.90;;;;;;5034418;28;20562;-62
2022/04/04 00:17:50;;;;;;;8.53;5.90;;;1.40;99.90;;;;;;5012386;28;20203;-62
2022/04/04 00:20:19;;;;;;;11.13;6.03;;;1.30;99.90;;;;;;5039538;28;20662;-61
2022/04/04 00:22:49;;;;;;;10.10;5.40;;;1.30;99.90;;;;;;5037261;28;20203;-62
2022/04/04 00:25:17;;;;;;;6.20;5.00;;;1.20;99.90;;;;;;5034258;28;20763;-61
2022/04/04 00:27:46;;;;;;;7.33;5.63;;;1.20;99.90;;;;;;5027647;28;20229;-62
2022/04/04 00:30:15;;;;;;;6.63;4.87;;;1.10;99.90;;;;;;5010048;28;20565;-62
2022/04/04 00:32:43;;;;;;;10.33;5.50;;;1.10;99.90;;;;;;5034663;28;20197;-62
2022/04/04 00:35:12;;;;;;;9.90;5.40;;;1.10;99.90;;;;;;5036644;28;20569;-61
2022/04/04 00:37:40;;;;;;;8.50;5.87;;;1.10;99.90;;;;;;5033104;28;20798;-61
2022/04/04 00:40:11;;;;;;;7.20;5.50;;;1.10;99.90;;;;;;5032731;28;20626;-62
2022/04/04 00:42:41;;;;;;;9.67;5.73;;;1.10;99.90;;;;;;5037872;28;20201;-62
2022/04/04 00:45:10;;;;;;;7.93;6.07;;;1.10;99.90;;;;;;5044792;28;20699;-62
2022/04/04 00:47:38;;;;;;;7.37;5.90;;;1.10;99.90;;;;;;5035036;28;20640;-62
2022/04/04 00:50:07;;;;;;;10.63;5.87;;;1.00;99.90;;;;;;5035699;28;20643;-61
2022/04/04 00:52:36;;;;;;;8.30;5.63;;;1.00;99.90;;;;;;5031934;28;20201;-62
2022/04/04 00:55:05;;;;;;;10.53;6.20;;;1.00;99.90;;;;;;5016937;28;20201;-62
2022/04/04 00:57:37;;;;;;;9.90;6.00;;;1.00;99.90;;;;;;5038630;28;20188;-62
2022/04/04 01:00:07;;;;;;;7.80;5.77;;;1.00;99.90;;;;;;5038506;28;20243;-62
2022/04/04 01:02:36;;;;;;;9.30;6.13;;;1.00;99.90;;;;;;5035870;28;20320;-62
2022/04/04 01:05:05;;;;;;;9.13;6.23;;;1.00;99.90;;;;;;5034518;28;20197;-61
2022/04/04 01:07:36;;;;;;;17.00;6.80;;;1.00;99.90;;;;;;5026396;28;20307;-61
2022/04/04 01:10:06;;;;;;;12.00;6.60;;;1.10;99.90;;;;;;5040694;28;20777;-62
2022/04/04 01:12:37;;;;;;;10.10;6.37;;;1.10;99.90;;;;;;5029514;28;20793;-62
2022/04/04 01:15:06;;;;;;;7.43;6.17;;;1.10;99.90;;;;;;5040458;28;20201;-61
2022/04/04 01:17:34;;;;;;;8.90;6.60;;;1.10;99.90;;;;;;5036523;28;20643;-62
2022/04/04 01:20:05;;;;;;;8.83;6.50;;;1.00;99.90;;;;;;5012715;28;20275;-61
2022/04/04 01:22:33;;;;;;;10.27;6.80;;;1.10;99.90;;;;;;5033816;28;20558;-62
2022/04/04 01:25:05;;;;;;;10.63;6.93;;;1.10;99.90;;;;;;5034237;28;20193;-62
2022/04/04 01:27:33;;;;;;;13.13;7.20;;;1.10;99.90;;;;;;5026310;28;20321;-61
2022/04/04 01:30:02;;;;;;;7.93;6.77;;;1.20;99.90;;;;;;5034086;28;20482;-61
2022/04/04 01:32:33;;;;;;;7.93;6.23;;;1.20;99.90;;;;;;5031440;28;20670;-61
2022/04/04 01:35:01;;;;;;;10.03;6.63;;;1.20;99.90;;;;;;5036123;28;20898;-62
2022/04/04 01:37:30;;;;;;;12.47;6.43;;;1.30;99.90;;;;;;5017579;28;20284;-62
2022/04/04 01:39:59;;;;;;;11.20;6.73;;;1.30;99.90;;;;;;5032506;28;20678;-61
2022/04/04 01:42:29;;;;;;;10.47;7.40;;;1.30;99.90;;;;;;5038710;28;20198;-61
2022/04/04 01:44:57;;;;;;;11.13;6.77;;;1.30;99.90;;;;;;5033301;28;20669;-62
2022/04/04 01:47:25;;;;;;;9.47;6.70;;;1.40;99.90;;;;;;5034630;28;20221;-62
2022/04/04 01:49:54;;;;;;;8.97;6.87;;;1.40;99.90;;;;;;5036025;28;20216;-61
2022/04/04 01:52:22;;;;;;;9.77;7.03;;;1.40;99.90;;;;;;5019133;28;20555;-62
2022/04/04 01:54:54;;;;;;;10.87;7.13;;;1.30;99.90;;;;;;5015914;28;20722;-62
2022/04/04 01:57:22;;;;;;;15.23;7.83;;;1.40;99.90;;;;;;5036058;28;20785;-62
2022/04/04 01:59:52;;;;;;;11.37;6.73;;;1.40;99.90;;;;;;5044120;28;20671;-62
2022/04/04 02:02:20;;;;;;;7.50;6.60;;;1.40;99.90;;;;;;5034371;28;20659;-61
2022/04/04 02:04:51;;;;;;;11.80;7.33;;;1.40;99.90;;;;;;5017300;28;20223;-62
2022/04/04 02:07:19;;;;;;;8.60;7.30;;;1.40;99.90;;;;;;5040318;28;20698;-61
2022/04/04 02:09:48;;;;;;;8.07;6.83;;;1.50;99.90;;;;;;5039690;28;20808;-62
2022/04/04 02:12:16;;;;;;;11.00;7.50;;;1.50;99.90;;;;;;5022812;28;20706;-62
2022/04/04 02:14:46;;;;;;;11.83;7.80;;;1.50;99.90;;;;;;5040268;28;20213;-62
2022/04/04 02:17:16;;;;;;;8.27;6.97;;;1.40;99.90;;;;;;5020288;28;20677;-62
2022/04/04 02:19:44;;;;;;;9.67;7.83;;;1.40;99.90;;;;;;5032956;28;20197;-62
2022/04/04 02:22:13;;;;;;;9.43;7.50;;;1.40;99.90;;;;;;5019671;28;20885;-62
2022/04/04 02:24:42;;;;;;;9.97;7.30;;;1.40;99.90;;;;;;5045311;28;20197;-62
2022/04/04 02:27:10;;;;;;;8.47;6.80;;;1.40;99.90;;;;;;5033586;28;20773;-62
2022/04/04 02:29:38;;;;;;;9.87;7.40;;;1.30;99.90;;;;;;5033610;28;20654;-62
2022/04/04 02:32:08;;;;;;;12.20;8.17;;;1.40;99.90;;;;;;5035670;28;20746;-62
2022/04/04 02:34:38;;;;;;;10.07;8.10;;;1.40;99.90;;;;;;5034530;28;20609;-62
2022/04/04 02:37:06;;;;;;;11.73;7.77;;;1.30;99.90;;;;;;5034634;28;20248;-62
2022/04/04 02:39:34;;;;;;;11.47;7.83;;;1.40;99.90;;;;;;5011333;28;20720;-61
2022/04/04 02:42:03;;;;;;;13.87;7.60;;;1.40;99.90;;;;;;5030527;28;20274;-62
2022/04/04 02:44:32;;;;;;;11.97;8.10;;;1.40;99.90;;;;;;5017005;28;20639;-61
2022/04/04 02:47:01;;;;;;;8.77;7.30;;;1.40;99.90;;;;;;5036858;28;20192;-61
2022/04/04 02:49:30;;;;;;;12.87;8.33;;;1.40;99.90;;;;;;5035530;28;20690;-61
2022/04/04 02:52:00;;;;;;;11.93;7.93;;;1.40;99.90;;;;;;5038137;28;20216;-62
2022/04/04 02:54:28;;;;;;;11.83;8.20;;;1.40;99.90;;;;;;5040268;28;20678;-62
2022/04/04 02:56:55;;;;;;;12.10;8.00;;;1.40;99.90;;;;;;5032090;28;20721;-62
2022/04/04 02:59:24;;;;;;;14.07;8.83;;;1.40;99.90;;;;;;5035602;28;20197;-62
2022/04/04 03:01:53;;;;;;;12.53;8.40;;;1.40;99.90;;;;;;5032873;28;20212;-62
2022/04/04 03:04:24;;;;;;;14.27;8.43;;;1.40;99.90;;;;;;5033696;28;20574;-61
2022/04/04 03:06:55;;;;;;;11.23;8.43;;;1.40;99.90;;;;;;5032288;28;20737;-62
2022/04/04 03:09:25;;;;;;;14.83;8.23;;;1.50;99.90;;;;;;5034390;28;20209;-62
2022/04/04 03:11:53;;;;;;;14.60;8.50;;;1.50;99.90;;;;;;5037272;28;20208;-61
2022/04/04 03:14:22;;;;;;;12.77;8.13;;;1.50;99.90;;;;;;5040424;28;20219;-62
2022/04/04 03:16:50;;;;;;;11.47;8.27;;;1.60;99.90;;;;;;5031550;28;20236;-62
2022/04/04 03:19:19;;;;;;;9.43;8.13;;;1.60;99.90;;;;;;5031946;28;20400;-62
2022/04/04 03:21:48;;;;;;;9.80;7.90;;;1.60;99.90;;;;;;5032967;28;20280;-61
2022/04/04 03:24:16;;;;;;;11.83;8.13;;;1.60;99.90;;;;;;5032062;28;20224;-62
2022/04/04 03:26:46;;;;;;;12.17;8.73;;;1.60;99.90;;;;;;5018211;28;20996;-62
2022/04/04 03:29:15;;;;;;;15.43;9.10;;;1.50;99.90;;;;;;5034808;28;20279;-62
2022/04/04 03:31:43;;;;;;;14.03;9.07;;;1.50;99.90;;;;;;5034086;28;20193;-62
2022/04/04 03:34:11;;;;;;;13.97;9.40;;;1.50;99.90;;;;;;5036214;28;20204;-62
2022/04/04 03:36:40;;;;;;;13.73;9.10;;;1.50;99.90;;;;;;5034129;28;20197;-62
2022/04/04 03:39:12;;;;;;;15.60;9.17;;;1.60;99.90;;;;;;5032246;28;20212;-62
2022/04/04 03:41:43;;;;;;;18.13;8.57;;;1.60;99.90;;;;;;5039601;28;20622;-62
2022/04/04 03:44:13;;;;;;;13.53;8.80;;;1.60;99.90;;;;;;5035197;28;20268;-62
2022/04/04 03:46:44;;;;;;;14.00;9.43;;;1.60;99.90;;;;;;5016784;28;20193;-62
2022/04/04 03:49:13;;;;;;;15.83;9.30;;;1.70;99.90;;;;;;5037120;28;20220;-62
2022/04/04 03:51:41;;;;;;;14.80;9.60;;;1.80;99.90;;;;;;5020661;28;20200;-61
2022/04/04 03:54:10;;;;;;;12.13;8.80;;;1.80;99.90;;;;;;5031246;28;20214;-61
2022/04/04 03:56:39;;;;;;;13.07;9.67;;;1.90;99.90;;;;;;5015032;28;20284;-61
2022/04/04 03:59:10;;;;;;;16.03;9.87;;;2.00;99.90;;;;;;5028751;28;20194;-61
2022/04/04 04:01:40;;;;;;;16.30;9.80;;;2.00;99.90;;;;;;5032578;28;20205;-61
2022/04/04 04:04:08;;;;;;;21.90;10.10;;;2.00;99.90;;;;;;5015675;28;20192;-62
2022/04/04 04:06:37;;;;;;;12.77;9.40;;;2.10;99.90;;;;;;5030355;28;20203;-62
2022/04/04 04:09:05;;;;;;;16.63;9.73;;;2.10;99.90;;;;;;5015769;28;20236;-62
2022/04/04 04:11:34;;;;;;;16.23;10.40;;;2.10;99.90;;;;;;5031186;28;20655;-61
2022/04/04 04:14:03;;;;;;;13.53;9.50;;;2.10;99.90;;;;;;5033486;28;20680;-62
2022/04/04 04:16:31;;;;;;;21.77;9.87;;;2.10;99.90;;;;;;5034096;28;20205;-61
2022/04/04 04:19:01;;;;;;;20.80;10.53;;;2.10;99.90;;;;;;5029356;28;20407;-62
2022/04/04 04:21:30;;;;;;;13.53;9.63;;;2.20;99.90;;;;;;5031502;28;20204;-62
2022/04/04 04:23:58;;;;;;;17.03;9.90;;;2.30;99.90;;;;;;5037895;28;20209;-62
2022/04/04 04:26:27;;;;;;;15.50;9.67;;;2.30;99.90;;;;;;5028206;28;20222;-62
2022/04/04 04:28:55;;;;;;;15.63;10.13;;;2.30;99.90;;;;;;5035992;28;20216;-62
2022/04/04 04:31:24;;;;;;;15.23;9.60;;;2.30;99.90;;;;;;5014494;28;21787;-61
2022/04/04 04:33:53;;;;;;;15.07;10.40;;;2.30;99.90;;;;;;5033681;28;20211;-62
2022/04/04 04:36:22;;;;;;;17.77;10.77;;;2.30;99.90;;;;;;5030685;28;20275;-62
2022/04/04 04:38:51;;;;;;;16.00;9.83;;;2.30;99.90;;;;;;5030331;28;20212;-62
2022/04/04 04:41:19;;;;;;;18.63;11.27;;;2.30;99.90;;;;;;5032079;28;20209;-62
2022/04/04 04:43:48;;;;;;;14.80;10.47;;;2.20;99.90;;;;;;5028477;28;20221;-62
2022/04/04 04:46:17;;;;;;;19.83;10.83;;;2.20;99.90;;;;;;5032393;28;20207;-61
2022/04/04 04:48:45;;;;;;;16.03;11.20;;;2.20;99.90;;;;;;5033233;28;20212;-62
2022/04/04 04:51:14;;;;;;;23.97;11.00;;;2.20;99.90;;;;;;5013023;28;20212;-62
2022/04/04 04:53:44;;;;;;;15.60;11.33;;;2.10;99.90;;;;;;5036203;28;20214;-62
2022/04/04 04:56:13;;;;;;;16.40;10.27;;;2.10;99.90;;;;;;5018775;28;20593;-62
2022/04/04 04:58:41;;;;;;;17.67;11.57;;;2.10;99.90;;;;;;5032551;28;20198;-61
2022/04/04 05:01:12;;;;;;;17.97;10.73;;;2.20;99.90;;;;;;5019701;28;20193;-62
2022/04/04 05:03:41;;;;;;;15.87;10.97;;;2.20;99.90;;;;;;5014078;28;20204;-62
2022/04/04 05:06:13;;;;;;;17.73;10.57;;;2.30;99.90;;;;;;5030965;28;20283;-62
2022/04/04 05:08:41;;;;;;;15.87;10.43;;;2.30;99.90;;;;;;5039150;28;20209;-61
2022/04/04 05:11:11;;;;;;;18.03;11.00;;;2.40;99.90;;;;;;5018039;28;20190;-62
2022/04/04 05:13:39;;;;;;;20.03;11.77;;;2.40;99.90;;;;;;5032869;28;20205;-61
2022/04/04 05:16:10;;;;;;;19.07;10.40;;;2.40;99.90;;;;;;5035214;28;20217;-62
2022/04/04 05:18:39;;;;;;;16.37;10.87;;;2.50;99.90;;;;;;5038022;28;20212;-62
2022/04/04 05:21:08;;;;;;;22.17;10.70;;;2.50;99.90;;;;;;5034282;28;20202;-62
2022/04/04 05:23:36;;;;;;;22.53;10.83;;;2.50;99.90;;;;;;5018363;28;20250;-62
2022/04/04 05:26:12;;;;;;;14.83;10.53;;;2.60;99.90;;;;;;5036351;28;20271;-62
2022/04/04 05:28:40;;;;;;;16.50;10.23;;;2.60;99.90;;;;;;5046160;28;20311;-62
2022/04/04 05:31:08;;;;;;;16.97;10.37;;;2.70;99.90;;;;;;5018280;28;20199;-62
2022/04/04 05:33:39;;;;;;;17.37;10.37;;;2.70;99.90;;;;;;5039798;28;20201;-62
2022/04/04 05:36:08;;;;;;;15.27;10.37;;;2.80;99.90;;;;;;5031365;28;20206;-61
2022/04/04 05:38:36;;;;;;;15.97;10.57;;;2.80;99.90;;;;;;5038740;28;20276;-62
2022/04/04 05:41:05;;;;;;;18.77;10.47;;;2.90;99.90;;;;;;5016932;28;20204;-62
2022/04/04 05:43:35;;;;;;;13.93;10.03;;;3.00;99.90;;;;;;5032028;28;20280;-62
2022/04/04 05:46:04;;;;;;;18.63;10.43;;;3.00;99.90;;;;;;5031595;28;20205;-62
2022/04/04 05:48:34;;;;;;;15.43;9.40;;;3.10;99.90;;;;;;5032750;28;20202;-62
2022/04/04 05:51:05;;;;;;;13.33;9.87;;;3.10;99.90;;;;;;5019486;28;20284;-62
2022/04/04 05:53:46;;;;;;;22.53;10.20;;;3.20;99.90;;;;;;5018697;28;20201;-61
2022/04/04 05:56:17;;;;;;;14.93;9.40;;;3.30;99.90;;;;;;5025174;28;20197;-61
2022/04/04 05:58:46;;;;;;;17.90;9.77;;;3.30;99.90;;;;;;5038760;28;20193;-62
2022/04/04 06:01:15;;;;;;;20.87;10.47;;;3.40;99.90;;;;;;5036854;28;20231;-62
2022/04/04 06:03:43;;;;;;;16.53;10.67;;;3.50;99.90;;;;;;5033991;28;20207;-62
2022/04/04 06:06:12;;;;;;;14.90;10.00;;;3.50;99.90;;;;;;5014573;28;20251;-62
2022/04/04 06:08:41;;;;;;;16.73;9.77;;;3.60;99.90;;;;;;5037570;28;20211;-62
2022/04/04 06:11:09;;;;;;;15.40;9.53;;;3.70;99.90;;;;;;5013684;28;20266;-62
2022/04/04 06:13:38;;;;;;;14.63;9.50;;;3.80;99.90;;;;;;5033413;28;20293;-61
2022/04/04 06:16:09;;;;;;;13.97;8.83;;;3.90;99.90;;;;;;5036214;28;20189;-61
2022/04/04 06:18:37;;;;;;;13.10;9.50;;;4.00;99.90;;;;;;5027018;28;20194;-62
2022/04/04 06:21:06;;;;;;;16.57;9.67;;;4.10;99.90;;;;;;5012804;28;20193;-62
2022/04/04 06:23:36;;;;;;;13.47;9.77;;;4.10;99.90;;;;;;5030570;28;20221;-62
2022/04/04 06:26:05;;;;;;;13.73;9.77;;;4.20;99.90;;;;;;5039491;28;20234;-61
2022/04/04 06:28:35;;;;;;;16.60;9.17;;;4.20;99.90;;;;;;5034774;28;20201;-61
2022/04/04 06:31:04;;;;;;;15.50;9.33;;;4.30;99.90;;;;;;5033326;28;20941;-62
2022/04/04 06:33:35;;;;;;;16.83;9.47;;;4.30;99.90;;;;;;5037964;28;20212;-62
2022/04/04 06:36:04;;;;;;;19.93;10.03;;;4.50;99.90;;;;;;5039404;28;20650;-61
2022/04/04 06:38:33;;;;;;;18.13;9.50;;;4.60;99.90;;;;;;5030937;28;20206;-61
2022/04/04 06:41:02;;;;;;;17.70;9.53;;;4.80;99.90;;;;;;5034551;28;20194;-62
2022/04/04 06:43:30;;;;;;;16.50;9.40;;;4.90;99.90;;;;;;5031444;28;20254;-62
2022/04/04 06:45:59;;;;;;;17.07;10.33;;;5.10;99.90;;;;;;5033768;28;20258;-62
2022/04/04 06:48:30;;;;;;;16.77;10.47;;;5.10;99.90;;;;;;5019326;28;20247;-62
2022/04/04 06:51:01;;;;;;;19.13;9.53;;;5.20;99.90;;;;;;5032168;28;20271;-62
2022/04/04 06:53:29;;;;;;;14.17;8.77;;;5.30;99.90;;;;;;5041258;28;20283;-62
2022/04/04 06:55:58;;;;;;;17.53;9.77;;;5.40;99.90;;;;;;5019081;28;20291;-62
2022/04/04 06:58:27;;;;;;;16.20;9.87;;;5.60;99.90;;;;;;5032630;28;20671;-62
2022/04/04 07:00:55;;;;;;;22.90;10.07;;;5.60;99.90;;;;;;5012372;28;20202;-62
2022/04/04 07:03:24;;;;;;;19.07;9.77;;;5.70;99.90;;;;;;5033285;28;20209;-62
2022/04/04 07:05:53;;;;;;;17.67;10.03;;;5.80;99.90;;;;;;5038689;28;20208;-62
2022/04/04 07:08:23;;;;;;;18.07;9.63;;;6.00;99.90;;;;;;5014032;28;20202;-62
2022/04/04 07:10:54;;;;;;;16.37;9.27;;;6.30;99.90;;;;;;5034449;28;20681;-62
2022/04/04 07:13:23;;;;;;;20.27;10.33;;;6.40;99.90;;;;;;5034133;28;20228;-62
2022/04/04 07:15:51;;;;;;;17.20;9.30;;;6.40;99.90;;;;;;5021033;28;20244;-62
2022/04/04 07:18:20;;;;;;;13.37;9.57;;;6.30;99.90;;;;;;5039942;28;20197;-62
2022/04/04 07:20:49;;;;;;;14.40;9.70;;;6.30;99.90;;;;;;5033820;28;20202;-62
2022/04/04 07:23:17;;;;;;;14.00;9.27;;;6.30;99.90;;;;;;5044070;28;20280;-62
2022/04/04 07:25:48;;;;;;;16.97;9.03;;;6.40;99.90;;;;;;5038290;28;20255;-63
2022/04/04 07:28:20;;;;;;;17.77;9.77;;;6.40;99.90;;;;;;5039971;28;20570;-62
2022/04/04 07:30:49;;;;;;;15.47;9.63;;;6.50;99.90;;;;;;5032860;28;20218;-62
2022/04/04 07:33:18;;;;;;;16.17;10.10;;;6.60;99.90;;;;;;5033051;28;20201;-62
2022/04/04 07:35:49;;;;;;;16.37;9.67;;;6.60;99.90;;;;;;5035722;28;20200;-62
2022/04/04 07:38:17;;;;;;;16.27;9.83;;;6.60;99.90;;;;;;5032814;28;20635;-62
2022/04/04 07:40:47;;;;;;;16.37;10.00;;;6.60;99.90;;;;;;5030075;28;20289;-62
2022/04/04 07:43:16;;;;;;;16.87;9.90;;;6.60;99.90;;;;;;5037060;28;20209;-63
2022/04/04 07:45:45;;;;;;;16.97;9.70;;;6.60;99.90;;;;;;5034665;28;20200;-62
2022/04/04 07:48:13;;;;;;;16.00;9.37;;;6.60;99.90;;;;;;5032019;28;20201;-62
2022/04/04 07:50:44;;;;;;;17.00;9.47;;;6.60;99.90;;;;;;5029138;28;20247;-62
2022/04/04 07:53:12;;;;;;;15.60;8.97;;;6.60;99.90;;;;;;5043925;28;20250;-62
2022/04/04 07:55:44;;;;;;;14.80;9.53;;;6.60;99.90;;;;;;5039394;28;20247;-62
2022/04/04 07:58:16;;;;;;;14.00;9.50;;;6.70;99.90;;;;;;5037301;28;20260;-62
2022/04/04 08:00:46;;;;;;;12.63;8.80;;;6.80;99.90;;;;;;5033269;28;20276;-62
2022/04/04 08:03:14;;;;;;;9.80;8.00;;;6.90;99.90;;;;;;5024141;28;20363;-62
2022/04/04 08:05:45;;;;;;;14.50;8.70;;;7.00;99.90;;;;;;5033737;28;20197;-62
2022/04/04 08:08:14;;;;;;;13.97;8.27;;;7.00;99.90;;;;;;5029000;28;20259;-62
2022/04/04 08:10:43;;;;;;;17.73;8.50;;;7.00;99.90;;;;;;5032281;28;20217;-62
2022/04/04 08:13:15;;;;;;;13.53;8.10;;;7.10;99.90;;;;;;5031959;28;20216;-62
2022/04/04 08:15:45;;;;;;;14.37;8.10;;;7.10;99.90;;;;;;5033232;28;20201;-62
2022/04/04 08:18:13;;;;;;;15.07;7.87;;;7.20;99.90;;;;;;5031838;28;20839;-62
2022/04/04 08:20:43;;;;;;;11.93;8.10;;;7.20;99.90;;;;;;4993523;28;20288;-62
2022/04/04 08:23:22;;;;;;;13.37;8.60;;;7.30;99.90;;;;;;5034861;28;20208;-62
2022/04/04 08:25:51;;;;;;;13.03;8.07;;;7.30;99.90;;;;;;5035330;28;20244;-62
2022/04/04 08:28:24;;;;;;;12.93;7.93;;;7.30;99.90;;;;;;5039145;28;20190;-62
2022/04/04 08:30:54;;;;;;;12.60;8.40;;;7.30;99.90;;;;;;5028934;28;20217;-62
2022/04/04 08:33:24;;;;;;;14.87;8.13;;;7.30;99.90;;;;;;5028976;28;20251;-62
2022/04/04 08:35:53;;;;;;;12.57;8.40;;;7.30;99.90;;;;;;5027976;28;20251;-62
2022/04/04 08:38:22;;;;;;;17.77;8.40;;;7.30;99.90;;;;;;5027071;28;20336;-62
2022/04/04 08:40:52;;;;;;;14.57;8.70;;;7.30;99.90;;;;;;5029199;28;20197;-60
2022/04/04 08:43:20;;;;;;;10.50;8.17;;;7.40;99.90;;;;;;5029510;28;20220;-62
2022/04/04 08:45:51;;;;;;;14.80;8.20;;;7.40;99.90;;;;;;5029729;28;20288;-62
2022/04/04 08:48:20;;;;;;;11.83;8.27;;;7.50;99.90;;;;;;5028465;28;20272;-62
2022/04/04 08:50:49;;;;;;;14.73;8.60;;;7.60;99.90;;;;;;5025908;28;20266;-62
2022/04/04 08:53:17;;;;;;;11.00;8.90;;;7.70;99.90;;;;;;5028642;28;20205;-62
2022/04/04 08:55:46;;;;;;;15.10;8.10;;;7.70;99.90;;;;;;5026461;28;20201;-62
2022/04/04 08:58:15;;;;;;;12.50;8.40;;;7.60;99.90;;;;;;5027950;28;20243;-62
2022/04/04 09:00:44;;;;;;;12.77;8.30;;;7.60;99.90;;;;;;5029345;28;20197;-62
2022/04/04 09:03:20;;;;;;;17.60;8.60;;;7.50;99.90;;;;;;5036295;28;20204;-62
2022/04/04 09:05:53;;;;;;;14.00;8.73;;;7.40;99.90;;;;;;5030452;28;20193;-62
2022/04/04 09:08:24;;;;;;;15.43;8.50;;;7.30;99.90;;;;;;5037222;28;20207;-62
2022/04/04 09:10:56;;;;;;;12.93;8.27;;;7.20;99.90;;;;;;5009872;28;20246;-62
2022/04/04 09:13:27;;;;;;;12.83;8.63;;;7.00;99.90;;;;;;5029370;28;20227;-62
2022/04/04 09:15:58;;;;;;;12.53;8.90;;;7.00;99.90;;;;;;5037387;28;20772;-62
2022/04/04 09:18:53;;;;;;;12.57;8.60;;;7.00;99.90;;;;;;5032043;28;20267;-62
2022/04/04 09:21:37;;;;;;;13.40;8.40;;;6.90;99.90;;;;;;5004433;28;20598;-62
2022/04/04 09:24:11;;;;;;;15.40;8.80;;;6.80;99.90;;;;;;5026721;28;20200;-62
2022/04/04 09:26:42;;;;;;;11.47;7.90;;;6.80;99.90;;;;;;5023978;28;20290;-62
2022/04/04 09:29:17;;;;;;;10.77;7.93;;;6.80;99.90;;;;;;5028145;28;20194;-63
2022/04/04 09:31:58;;;;;;;11.13;8.33;;;6.80;99.90;;;;;;5030777;28;20815;-62
2022/04/04 09:34:31;;;;;;;15.90;9.70;;;6.80;99.90;;;;;;5030470;28;20199;-62
2022/04/04 09:36:59;;;;;;;11.47;8.57;;;6.70;99.90;;;;;;5029845;28;20209;-63
2022/04/04 09:39:28;;;;;;;9.43;8.00;;;6.80;99.90;;;;;;5029176;28;20242;-63
2022/04/04 09:41:59;;;;;;;15.43;8.87;;;6.70;99.90;;;;;;5035407;28;20546;-62
2022/04/04 09:44:27;;;;;;;19.73;11.27;;;6.80;99.90;;;;;;5036434;28;20286;-62
2022/04/04 09:46:56;;;;;;;17.53;10.57;;;6.80;99.90;;;;;;5029175;28;20250;-62
2022/04/04 09:49:25;;;;;;;11.97;8.87;;;6.80;99.90;;;;;;5030979;28;20567;-61
2022/04/04 09:51:56;;;;;;;12.70;9.43;;;6.80;99.90;;;;;;5031376;28;20768;-62
2022/04/04 09:54:28;;;;;;;13.23;9.60;;;6.70;99.90;;;;;;5030201;28;20197;-62
2022/04/04 09:57:09;;;;;;;18.80;10.57;;;6.60;99.90;;;;;;5038579;28;20652;-62
2022/04/04 09:59:39;;;;;;;14.00;9.60;;;6.60;99.90;;;;;;5030233;28;20212;-62
2022/04/04 10:02:09;;;;;;;12.97;9.27;;;6.60;99.90;;;;;;5012295;28;20825;-62
2022/04/04 10:04:44;;;;;;;14.07;8.67;;;6.60;99.90;;;;;;5012438;28;20243;-62
2022/04/04 10:07:17;;;;;;;11.90;9.27;;;6.50;99.90;;;;;;5024727;28;20201;-62
2022/04/04 10:09:46;;;;;;;12.10;9.00;;;6.50;99.90;;;;;;5030595;28;20208;-62
2022/04/04 10:12:15;;;;;;;13.63;9.40;;;6.60;99.90;;;;;;5036633;28;20280;-61
2022/04/04 10:14:44;;;;;;;12.60;9.50;;;6.60;99.90;;;;;;5036414;28;20565;-61
2022/04/04 10:17:15;;;;;;;11.40;8.70;;;6.60;99.90;;;;;;5038357;28;20193;-63
2022/04/04 10:19:44;;;;;;;9.50;8.40;;;6.60;99.90;;;;;;5014079;28;20620;-62
2022/04/04 10:22:15;;;;;;;13.80;8.80;;;6.60;99.90;;;;;;5035072;28;20264;-61
2022/04/04 10:24:45;;;;;;;13.20;8.60;;;6.60;99.90;;;;;;5032456;28;20223;-62
2022/04/04 10:27:14;;;;;;;12.70;9.03;;;6.60;99.90;;;;;;5037199;28;20228;-62
2022/04/04 10:29:47;;;;;;;10.73;9.63;;;6.60;99.90;;;;;;5028879;28;20858;-62
2022/04/04 10:32:24;;;;;;;12.70;8.70;;;6.70;99.90;;;;;;5036932;28;20213;-62
2022/04/04 10:34:56;;;;;;;21.00;9.50;;;6.80;99.90;;;;;;5021266;28;20184;-62
2022/04/04 10:37:30;;;;;;;12.47;9.37;;;6.90;99.90;;;;;;5013744;28;20858;-62
2022/04/04 10:40:10;;;;;;;13.47;9.23;;;6.90;99.90;;;;;;5030822;28;20725;-62
2022/04/04 10:42:41;;;;;;;10.23;8.40;;;6.90;99.90;;;;;;5035795;28;20197;-62
2022/04/04 10:45:18;;;;;;;11.63;8.57;;;7.00;99.90;;;;;;5033611;28;20831;-63
2022/04/04 10:47:47;;;;;;;13.43;9.53;;;7.00;99.90;;;;;;5022810;28;20214;-62
2022/04/04 10:50:22;;;;;;;10.60;9.50;;;7.00;99.90;;;;;;5033316;28;20192;-62
2022/04/04 10:52:53;;;;;;;14.47;8.90;;;7.00;99.90;;;;;;5018489;28;20220;-62
2022/04/04 10:55:28;;;;;;;12.07;8.73;;;7.00;99.90;;;;;;5034730;28;20196;-62
2022/04/04 10:58:00;;;;;;;10.83;8.77;;;7.00;99.90;;;;;;5032891;28;20286;-62
2022/04/04 11:00:33;;;;;;;14.97;9.27;;;7.10;99.90;;;;;;5036433;28;20646;-62
2022/04/04 11:03:02;;;;;;;10.97;8.57;;;7.10;99.90;;;;;;5023816;28;20293;-62
2022/04/04 11:08:33;;;;;;;11.57;8.70;;;7.20;99.90;;;;;;5015582;28;20632;-62
2022/04/04 11:11:02;;;;;;;9.83;8.07;;;7.10;99.90;;;;;;5040546;28;20201;-62
2022/04/04 11:13:36;;;;;;;10.63;8.43;;;7.10;99.90;;;;;;5033461;28;20776;-62
2022/04/04 11:16:07;;;;;;;9.33;8.43;;;7.10;99.90;;;;;;5034125;28;20201;-63
2022/04/04 11:18:51;;;;;;;17.83;10.00;;;7.00;99.90;;;;;;5036182;28;20678;-62
2022/04/04 11:21:41;;;;;;;11.07;9.17;;;7.00;99.90;;;;;;5038151;28;20659;-63
2022/04/04 11:24:15;;;;;;;15.23;8.87;;;6.90;99.90;;;;;;5029944;28;20280;-63
2022/04/04 11:26:48;;;;;;;13.37;9.03;;;6.90;99.90;;;;;;5023494;28;20632;-62
2022/04/04 11:29:21;;;;;;;15.23;9.20;;;6.80;99.90;;;;;;5038787;28;20176;-62
2022/04/04 11:31:50;;;;;;;13.93;9.53;;;6.70;99.90;;;;;;5031694;28;20729;-62
2022/04/04 11:34:21;;;;;;;12.47;9.83;;;6.70;99.90;;;;;;5033841;28;20633;-62
2022/04/04 11:36:52;;;;;;;12.10;8.50;;;6.70;99.90;;;;;;5036988;28;20231;-62
2022/04/04 11:39:22;;;;;;;15.23;10.43;;;6.70;99.90;;;;;;5022747;28;20224;-63
2022/04/04 11:42:08;;;;;;;14.57;10.23;;;6.70;99.90;;;;;;5030567;28;20331;-62
2022/04/04 11:44:46;;;;;;;12.97;9.67;;;6.80;99.90;;;;;;5016715;28;20217;-62
2022/04/04 11:47:17;;;;;;;13.40;9.90;;;6.90;99.90;;;;;;5034510;28;20232;-63
2022/04/04 11:49:46;;;;;;;12.13;9.57;;;6.90;99.90;;;;;;5036752;28;20233;-62
2022/04/04 11:52:19;;;;;;;12.40;9.63;;;7.00;99.90;;;;;;5035805;28;20255;-63
2022/04/04 11:54:50;;;;;;;11.80;9.97;;;7.00;99.90;;;;;;5015391;28;20319;-63
2022/04/04 11:57:21;;;;;;;14.47;9.93;;;7.00;99.90;;;;;;5042998;28;20208;-63
2022/04/04 11:59:51;;;;;;;16.40;10.53;;;7.00;99.90;;;;;;5015635;28;20249;-63
2022/04/04 12:02:23;;;;;;;12.87;9.90;;;7.00;99.90;;;;;;5013933;28;20201;-63
2022/04/04 12:04:52;;;;;;;12.63;9.67;;;7.00;99.90;;;;;;5027977;28;20654;-63
2022/04/04 12:07:20;;;;;;;13.40;9.97;;;7.00;99.90;;;;;;5032184;28;20209;-63
2022/04/04 12:09:53;;;;;;;19.70;9.23;;;7.00;99.90;;;;;;5030289;28;20216;-63
2022/04/04 12:12:29;;;;;;;17.20;10.00;;;7.00;99.90;;;;;;5033744;28;20209;-62
2022/04/04 12:14:58;;;;;;;17.80;9.53;;;7.00;99.90;;;;;;5035256;28;20199;-62
2022/04/04 12:17:27;;;;;;;18.17;9.43;;;7.00;99.90;;;;;;5035962;28;20217;-63
2022/04/04 12:19:55;;;;;;;9.67;8.60;;;7.00;99.90;;;;;;5014609;28;20292;-62
2022/04/04 12:25:21;;;;;;;37.23;8.90;;;7.10;99.90;;;;;;5035562;28;20250;-62
2022/04/04 12:27:57;;;;;;;11.23;9.30;;;7.10;99.90;;;;;;5033011;28;20244;-62
2022/04/04 12:30:31;;;;;;;12.53;9.50;;;7.20;99.90;;;;;;5030636;28;20243;-62
2022/04/04 12:33:10;;;;;;;15.87;9.80;;;7.20;99.90;;;;;;5037711;28;20252;-63
2022/04/04 12:35:43;;;;;;;14.20;9.63;;;7.10;99.90;;;;;;5015133;28;20655;-62
2022/04/04 12:38:25;;;;;;;11.83;9.20;;;7.10;99.90;;;;;;5030650;28;20203;-63
2022/04/04 12:41:06;;;;;;;16.93;8.47;;;7.10;99.90;;;;;;5028897;28;20201;-63
2022/04/04 12:43:35;;;;;;;12.07;9.30;;;7.00;99.90;;;;;;5034418;28;20287;-63
2022/04/04 12:46:06;;;;;;;13.93;9.57;;;7.00;99.90;;;;;;5031091;28;20195;-63
2022/04/04 12:48:37;;;;;;;14.03;9.80;;;7.00;99.90;;;;;;5036668;28;20189;-64
2022/04/04 12:51:07;;;;;;;16.53;9.63;;;7.00;99.90;;;;;;5038914;28;20197;-63
2022/04/04 12:53:49;;;;;;;12.83;10.03;;;7.00;99.90;;;;;;5015655;28;20221;-62
2022/04/04 12:56:19;;;;;;;15.20;9.90;;;6.90;99.90;;;;;;5039613;28;20236;-63
2022/04/04 12:59:07;;;;;;;12.90;9.87;;;6.90;99.90;;;;;;5013074;28;20208;-63
2022/04/04 13:01:36;;;;;;;13.80;9.93;;;6.90;99.90;;;;;;5014349;28;20193;-63
2022/04/04 13:04:19;;;;;;;13.03;10.23;;;6.90;99.90;;;;;;5030988;28;20208;-63
2022/04/04 13:06:47;;;;;;;14.33;10.63;;;6.90;99.90;;;;;;5036239;28;20254;-63